Time;durP1;ratioP1;P1;durP2;ratioP2;P2;SDS_P1;SDS_P2;PMS_P1;PMS_P2;Temp;Humidity;BMP_temperature;BMP_pressure;BME280_temperature;BME280_humidity;BME280_pressure;Samples;Min_cycle;Max_cycle;Signal;HPM_P1;HPM_P2
2023/10/18 00:01:30;;;;;;;60.33;16.48;;;;;;;;;;4943401;28;20182;-55
2023/10/18 00:03:57;;;;;;;61.17;14.95;;;;;;;;;;4963347;28;20055;-50
2023/10/18 00:06:24;;;;;;;49.85;14.90;;;;;;;;;;4944684;28;20049;-50
2023/10/18 00:08:57;;;;;;;36.03;16.17;;;;;;;;;;4959581;28;20066;-54
2023/10/18 00:11:25;;;;;;;;;;;;;;;;;;4945540;28;20489;-51
2023/10/18 00:13:53;;;;;;;54.55;13.90;;;;;;;;;;4959589;28;19961;-54
2023/10/18 00:16:23;;;;;;;89.60;17.27;;;;;;;;;;4952550;28;20559;-54
2023/10/18 00:18:50;;;;;;;47.53;13.98;;;;;;;;;;4962760;28;20047;-51
2023/10/18 00:21:17;;;;;;;48.92;13.82;;;;;;;;;;4942750;28;20047;-50
2023/10/18 00:23:47;;;;;;;62.75;15.43;;;;;;;;;;4958866;28;20049;-54
2023/10/18 00:26:13;;;;;;;58.90;16.17;;;;;;;;;;4947914;28;20382;-51
2023/10/18 00:28:43;;;;;;;64.82;15.48;;;;;;;;;;4965103;28;20055;-53
2023/10/18 00:31:14;;;;;;;51.75;14.65;;;;;;;;;;4948997;28;20050;-51
2023/10/18 00:33:41;;;;;;;60.65;15.45;;;;;;;;;;4947675;28;20047;-58
2023/10/18 00:36:10;;;;;;;47.78;14.68;;;;;;;;;;4949021;28;20054;-54
2023/10/18 00:38:40;;;;;;;44.38;14.98;;;;;;;;;;4944100;28;20399;-55
2023/10/18 00:41:15;;;;;;;64.65;16.65;;;;;;;;;;4948651;28;20039;-54
2023/10/18 00:43:45;;;;;;;59.65;15.50;;;;;;;;;;4946227;28;20059;-52
2023/10/18 00:46:14;;;;;;;74.40;14.90;;;;;;;;;;4965937;28;20547;-56
2023/10/18 00:48:42;;;;;;;46.10;15.15;;;;;;;;;;4949616;28;20057;-54
2023/10/18 00:51:09;;;;;;;46.50;14.95;;;;;;;;;;4958560;28;20397;-51
2023/10/18 00:53:37;;;;;;;43.38;13.85;;;;;;;;;;4933298;28;20047;-51
2023/10/18 00:56:07;;;;;;;58.88;15.32;;;;;;;;;;4946938;28;20510;-53
2023/10/18 00:58:34;;;;;;;68.13;14.77;;;;;;;;;;4946292;28;20053;-51
2023/10/18 01:01:08;;;;;;;39.03;15.23;;;;;;;;;;4967207;28;20460;-50
2023/10/18 01:03:38;;;;;;;51.20;13.93;;;;;;;;;;4954816;28;20423;-54
2023/10/18 01:06:12;;;;;;;53.88;15.25;;;;;;;;;;4938242;28;20102;-50
2023/10/18 01:08:39;;;;;;;48.08;15.07;;;;;;;;;;4946903;28;20055;-51
2023/10/18 01:11:10;;;;;;;62.53;15.75;;;;;;;;;;4961859;28;20043;-51
2023/10/18 01:13:40;;;;;;;53.65;14.75;;;;;;;;;;4949007;28;20039;-54
2023/10/18 01:19:15;;;;;;;88.13;16.65;;;;;;;;;;4898505;29;20079;-55
2023/10/18 01:21:51;;;;;;;50.25;14.45;;;;;;;;;;4889364;29;20062;-55
2023/10/18 01:24:18;;;;;;;46.38;14.48;;;;;;;;;;4909502;29;20474;-54
2023/10/18 01:26:45;;;;;;;50.20;15.30;;;;;;;;;;4890184;29;20113;-53
2023/10/18 01:29:12;;;;;;;56.22;14.30;;;;;;;;;;4889396;29;20135;-56
2023/10/18 01:31:45;;;;;;;61.20;16.33;;;;;;;;;;4897530;29;20054;-52
2023/10/18 01:34:12;;;;;;;;;;;;;;;;;;4889701;29;20388;-55
2023/10/18 01:36:41;;;;;;;54.42;15.50;;;;;;;;;;4888677;29;19931;-52
2023/10/18 01:39:20;;;;;;;64.47;15.02;;;;;;;;;;4889756;29;20048;-51
2023/10/18 01:41:48;;;;;;;58.33;14.82;;;;;;;;;;4887844;29;20793;-51
2023/10/18 01:44:27;;;;;;;58.13;16.00;;;;;;;;;;4909613;29;20056;-52
2023/10/18 01:46:55;;;;;;;57.70;14.55;;;;;;;;;;4896607;29;20075;-53
2023/10/18 01:49:25;;;;;;;103.50;19.85;;;;;;;;;;4917529;28;20413;-55
2023/10/18 01:51:53;;;;;;;58.00;15.70;;;;;;;;;;4950360;28;20043;-54
2023/10/18 01:54:25;;;;;;;49.25;16.23;;;;;;;;;;4962696;28;20066;-52
2023/10/18 01:56:54;;;;;;;48.15;14.00;;;;;;;;;;4944234;28;20046;-57
2023/10/18 01:59:25;;;;;;;51.33;16.77;;;;;;;;;;4951572;28;20536;-55
2023/10/18 02:01:53;;;;;;;48.05;15.68;;;;;;;;;;4958644;23;20056;-55
2023/10/18 02:04:26;;;;;;;77.28;16.75;;;;;;;;;;4951855;28;20054;-55
2023/10/18 02:07:17;;;;;;;55.92;16.73;;;;;;;;;;4964515;28;20074;-53
2023/10/18 02:09:48;;;;;;;56.13;17.08;;;;;;;;;;4977650;28;20416;-50
2023/10/18 02:12:20;;;;;;;42.10;15.93;;;;;;;;;;4962723;28;20082;-55
2023/10/18 02:14:48;;;;;;;48.33;16.85;;;;;;;;;;4947305;28;20039;-54
2023/10/18 02:17:18;;;;;;;62.55;17.67;;;;;;;;;;4951063;28;20066;-55
2023/10/18 02:19:45;;;;;;;55.40;18.38;;;;;;;;;;4945229;28;20133;-54
2023/10/18 02:22:13;;;;;;;78.78;18.15;;;;;;;;;;4944433;28;20053;-56
2023/10/18 02:24:42;;;;;;;63.05;17.15;;;;;;;;;;4952010;28;20043;-54
2023/10/18 02:27:15;;;;;;;56.25;16.45;;;;;;;;;;4942814;28;20431;-53
2023/10/18 02:29:44;;;;;;;55.63;17.88;;;;;;;;;;4962064;28;20094;-55
2023/10/18 02:32:23;;;;;;;70.78;16.70;;;;;;;;;;4943464;28;20047;-54
2023/10/18 02:34:53;;;;;;;48.03;14.38;;;;;;;;;;4958265;28;20051;-52
2023/10/18 02:37:21;;;;;;;94.50;17.52;;;;;;;;;;4950088;28;20590;-56
2023/10/18 02:39:49;;;;;;;49.25;15.13;;;;;;;;;;4961318;28;20497;-54
2023/10/18 02:42:32;;;;;;;65.15;17.25;;;;;;;;;;4965415;28;20047;-55
2023/10/18 02:45:00;;;;;;;55.35;16.45;;;;;;;;;;4959337;28;20043;-53
2023/10/18 02:47:29;;;;;;;50.25;16.52;;;;;;;;;;4947618;28;20066;-52
2023/10/18 02:49:56;;;;;;;61.63;16.48;;;;;;;;;;4951112;28;20039;-54
2023/10/18 02:52:26;;;;;;;83.53;17.30;;;;;;;;;;4954043;28;20494;-56
2023/10/18 02:54:56;;;;;;;52.80;16.90;;;;;;;;;;4944382;28;20041;-54
2023/10/18 02:57:24;;;;;;;60.40;16.90;;;;;;;;;;4961581;28;20130;-56
2023/10/18 02:59:51;;;;;;;54.20;17.15;;;;;;;;;;4960109;28;20047;-53
2023/10/18 03:02:24;;;;;;;52.20;15.55;;;;;;;;;;4950644;28;20109;-52
2023/10/18 03:04:52;;;;;;;60.72;14.77;;;;;;;;;;4961647;28;20047;-51
2023/10/18 03:07:22;;;;;;;89.68;16.63;;;;;;;;;;4943792;28;20049;-50
2023/10/18 03:09:53;;;;;;;60.88;15.27;;;;;;;;;;4946356;29;20084;-56
2023/10/18 03:12:21;;;;;;;57.83;16.83;;;;;;;;;;4966888;28;20054;-53
2023/10/18 03:14:55;;;;;;;57.00;16.83;;;;;;;;;;4945327;28;20102;-53
2023/10/18 03:17:23;;;;;;;58.65;17.13;;;;;;;;;;4959646;28;20122;-54
2023/10/18 03:19:54;;;;;;;54.45;15.73;;;;;;;;;;4944804;28;20050;-56
2023/10/18 03:22:22;;;;;;;89.80;18.02;;;;;;;;;;4962665;28;20539;-51
2023/10/18 03:24:51;;;;;;;51.53;15.73;;;;;;;;;;4943437;28;20536;-52
2023/10/18 03:27:20;;;;;;;53.47;15.48;;;;;;;;;;4977685;28;20074;-57
2023/10/18 03:29:47;;;;;;;39.75;13.98;;;;;;;;;;4947933;28;20065;-54
2023/10/18 03:32:19;;;;;;;42.78;14.15;;;;;;;;;;4941423;28;20047;-56
2023/10/18 03:34:47;;;;;;;;;;;;;;;;;;4950893;28;20051;-53
2023/10/18 03:37:48;;;;;;;68.05;16.50;;;;;;;;;;4944982;28;20386;-58
2023/10/18 03:40:21;;;;;;;68.50;15.60;;;;;;;;;;4943143;28;20081;-53
2023/10/18 03:42:53;;;;;;;42.28;15.38;;;;;;;;;;4962062;28;20047;-56
2023/10/18 03:45:27;;;;;;;66.03;16.85;;;;;;;;;;4925067;28;20054;-56
2023/10/18 03:47:58;;;;;;;56.63;17.88;;;;;;;;;;4942512;28;20488;-53
2023/10/18 03:50:31;;;;;;;65.85;18.45;;;;;;;;;;4944718;28;20066;-54
2023/10/18 03:52:58;;;;;;;66.22;18.83;;;;;;;;;;4935078;28;20434;-53
2023/10/18 03:55:36;;;;;;;119.72;22.27;;;;;;;;;;4961192;28;20039;-55
2023/10/18 03:58:08;;;;;;;64.97;19.45;;;;;;;;;;4976336;28;20040;-55
2023/10/18 04:00:37;;;;;;;68.97;20.08;;;;;;;;;;4961105;28;20380;-54
2023/10/18 04:03:12;;;;;;;66.05;19.10;;;;;;;;;;4953042;28;20058;-54
2023/10/18 04:05:44;;;;;;;51.35;18.02;;;;;;;;;;4953300;28;20062;-55
2023/10/18 04:08:16;;;;;;;61.35;18.42;;;;;;;;;;4978754;28;20130;-54
2023/10/18 04:10:43;;;;;;;73.22;17.88;;;;;;;;;;4964027;28;20039;-56
2023/10/18 04:13:14;;;;;;;63.25;18.90;;;;;;;;;;4957563;28;20038;-55
2023/10/18 04:15:45;;;;;;;69.75;20.05;;;;;;;;;;4971228;28;20051;-55
2023/10/18 04:18:13;;;;;;;80.38;20.35;;;;;;;;;;4964075;28;20043;-53
2023/10/18 04:20:43;;;;;;;79.85;24.45;;;;;;;;;;4944892;28;20383;-54
2023/10/18 04:23:19;;;;;;;93.13;23.38;;;;;;;;;;4967206;28;20559;-56
2023/10/18 04:25:57;;;;;;;97.43;24.67;;;;;;;;;;4962493;28;20370;-53
2023/10/18 04:28:37;;;;;;;115.80;26.70;;;;;;;;;;4955265;28;20066;-54
2023/10/18 04:31:14;;;;;;;88.85;22.23;;;;;;;;;;4950621;28;20071;-54
2023/10/18 04:33:42;;;;;;;77.07;22.80;;;;;;;;;;4962174;28;20091;-56
2023/10/18 04:36:13;;;;;;;85.47;25.15;;;;;;;;;;4951453;28;20063;-54
2023/10/18 04:38:44;;;;;;;69.28;22.30;;;;;;;;;;4954033;28;20078;-56
2023/10/18 04:43:50;;;;;;;80.45;22.65;;;;;;;;;;4964430;28;20540;-57
2023/10/18 04:46:26;;;;;;;91.22;23.90;;;;;;;;;;4958051;28;20523;-57
2023/10/18 04:51:33;;;;;;;80.88;22.55;;;;;;;;;;4954898;28;20078;-54
2023/10/18 04:54:02;;;;;;;92.00;22.85;;;;;;;;;;4961667;28;20051;-56
2023/10/18 04:56:37;;;;;;;106.88;23.40;;;;;;;;;;4953256;28;20411;-55
2023/10/18 05:04:21;;;;;;;105.97;22.60;;;;;;;;;;4962405;28;20114;-56
2023/10/18 05:06:55;;;;;;;74.88;21.42;;;;;;;;;;4962319;28;20448;-53
2023/10/18 05:09:29;;;;;;;67.20;20.25;;;;;;;;;;4953506;28;20039;-55
2023/10/18 05:12:04;;;;;;;76.97;21.10;;;;;;;;;;4969447;28;20041;-57
2023/10/18 05:14:43;;;;;;;67.40;19.77;;;;;;;;;;4954905;28;20050;-54
2023/10/18 05:17:21;;;;;;;97.13;21.33;;;;;;;;;;4955046;28;20519;-52
2023/10/18 05:19:55;;;;;;;76.72;20.67;;;;;;;;;;4950354;28;20388;-54
2023/10/18 05:22:25;;;;;;;114.22;21.63;;;;;;;;;;4932467;28;20495;-53
2023/10/18 05:28:14;;;;;;;138.55;25.55;;;;;;;;;;4966138;28;20066;-60
2023/10/18 05:36:54;;;;;;;66.07;21.48;;;;;;;;;;4972141;28;20047;-56
2023/10/18 05:39:17;;;;;;;61.97;20.08;;;;;;;;;;4968747;28;20573;-55
2023/10/18 05:41:49;;;;;;;74.07;21.45;;;;;;;;;;4954876;28;20446;-55
2023/10/18 05:44:16;;;;;;;76.03;21.30;;;;;;;;;;4965529;28;20153;-59
2023/10/18 05:46:46;;;;;;;94.00;23.88;;;;;;;;;;4962463;28;20414;-55
2023/10/18 05:49:16;;;;;;;91.72;22.55;;;;;;;;;;4967725;28;20034;-57
2023/10/18 05:51:51;;;;;;;84.72;22.98;;;;;;;;;;4960019;28;20506;-57
2023/10/18 05:54:21;;;;;;;83.93;22.63;;;;;;;;;;4963811;28;20039;-54
2023/10/18 05:56:52;;;;;;;84.93;23.80;;;;;;;;;;4958952;28;20035;-56
2023/10/18 07:32:13;;;;;;;273.45;32.90;;;;;;;;;;4890489;22;1303786;-56
2023/10/18 07:34:42;;;;;;;87.20;20.48;;;;;;;;;;5061233;28;20190;-59
2023/10/18 07:37:23;;;;;;;68.32;17.92;;;;;;;;;;5078518;28;20037;-56
2023/10/18 07:39:56;;;;;;;54.47;16.05;;;;;;;;;;5081049;28;20047;-57
2023/10/18 07:42:26;;;;;;;41.90;13.23;;;;;;;;;;5068824;28;20076;-56
2023/10/18 07:44:55;;;;;;;37.05;11.63;;;;;;;;;;5066933;28;20386;-55
2023/10/18 07:47:25;;;;;;;46.08;10.65;;;;;;;;;;5075975;28;20533;-56
2023/10/18 07:49:55;;;;;;;39.25;9.48;;;;;;;;;;5076199;28;20409;-55
2023/10/18 07:52:25;;;;;;;52.27;10.60;;;;;;;;;;5054078;28;20121;-54
2023/10/18 07:54:51;;;;;;;42.83;9.18;;;;;;;;;;5060119;28;20062;-53
2023/10/18 07:57:29;;;;;;;52.10;10.05;;;;;;;;;;5078378;28;20068;-56
2023/10/18 08:00:21;;;;;;;36.78;9.15;;;;;;;;;;5067220;28;20072;-55
2023/10/18 08:02:43;;;;;;;40.63;7.85;;;;;;;;;;5068681;28;20048;-55
2023/10/18 08:05:10;;;;;;;37.55;7.15;;;;;;;;;;5079842;28;20063;-58
2023/10/18 08:07:37;;;;;;;37.72;7.70;;;;;;;;;;5078018;28;20440;-57
2023/10/18 08:10:08;;;;;;;52.85;8.27;;;;;;;;;;5082635;28;20040;-58
2023/10/18 08:12:35;;;;;;;57.78;8.25;;;;;;;;;;5077464;28;20505;-56
2023/10/18 08:15:13;;;;;;;52.97;8.23;;;;;;;;;;5059317;28;20051;-57
2023/10/18 08:22:53;;;;;;;34.10;6.07;;;;;;;;;;5081151;28;20044;-54
2023/10/18 08:25:32;;;;;;;42.03;6.65;;;;;;;;;;5058835;28;20127;-57
2023/10/18 08:28:02;;;;;;;44.78;6.45;;;;;;;;;;5073130;28;20055;-54
2023/10/18 08:33:11;;;;;;;117.82;12.20;;;;;;;;;;5075237;28;20459;-55
2023/10/18 08:35:38;;;;;;;37.28;7.20;;;;;;;;;;5066211;28;20106;-56
2023/10/18 08:38:04;;;;;;;33.05;5.75;;;;;;;;;;5079217;28;20045;-57
2023/10/18 08:43:18;;;;;;;60.88;8.05;;;;;;;;;;5049753;28;20040;-58
2023/10/18 08:45:48;;;;;;;24.90;5.93;;;;;;;;;;5061916;28;20049;-54
2023/10/18 08:48:20;;;;;;;104.72;10.50;;;;;;;;;;5054922;28;20045;-54
2023/10/18 08:50:48;;;;;;;24.92;5.18;;;;;;;;;;5065857;28;20049;-53
2023/10/18 08:53:15;;;;;;;41.28;6.47;;;;;;;;;;5046661;28;20040;-54
2023/10/18 08:55:51;;;;;;;38.65;5.63;;;;;;;;;;5066762;28;20041;-54
2023/10/18 08:58:19;;;;;;;40.45;6.18;;;;;;;;;;5062686;28;20045;-57
2023/10/18 09:03:14;;;;;;;72.13;8.07;;;;;;;;;;5045933;28;20049;-56
2023/10/18 09:05:41;;;;;;;28.27;5.10;;;;;;;;;;5053849;28;20374;-54
2023/10/18 09:08:08;;;;;;;44.63;5.65;;;;;;;;;;5043985;28;20461;-56
2023/10/18 09:15:50;;;;;;;54.10;6.25;;;;;;;;;;5046151;28;20044;-53
2023/10/18 09:18:30;;;;;;;33.13;5.72;;;;;;;;;;5062859;28;20359;-55
2023/10/18 09:23:40;;;;;;;32.10;4.75;;;;;;;;;;5061804;28;20056;-54
2023/10/18 09:26:13;;;;;;;26.10;4.07;;;;;;;;;;5064228;28;20033;-55
2023/10/18 09:28:43;;;;;;;24.98;4.72;;;;;;;;;;5063914;28;20044;-55
2023/10/18 09:31:16;;;;;;;41.45;4.78;;;;;;;;;;5064965;28;20044;-57
2023/10/18 09:33:51;;;;;;;85.28;9.05;;;;;;;;;;5066389;28;20052;-54
2023/10/18 09:36:25;;;;;;;60.05;5.88;;;;;;;;;;5063204;28;20056;-55
2023/10/18 09:38:52;;;;;;;28.65;5.07;;;;;;;;;;5048154;28;20055;-50
2023/10/18 09:41:19;;;;;;;28.83;4.43;;;;;;;;;;5071153;28;20094;-50
2023/10/18 09:43:49;;;;;;;31.05;4.63;;;;;;;;;;5054310;28;20094;-51
2023/10/18 09:46:16;;;;;;;30.80;4.18;;;;;;;;;;5070223;28;20040;-50
2023/10/18 09:48:46;;;;;;;32.03;4.25;;;;;;;;;;5065236;28;20040;-58
2023/10/18 09:51:15;;;;;;;76.55;6.65;;;;;;;;;;5052461;28;20032;-52
2023/10/18 09:53:46;;;;;;;20.25;3.75;;;;;;;;;;5061358;28;20049;-54
2023/10/18 09:56:14;;;;;;;29.70;4.15;;;;;;;;;;5053080;28;20077;-53
2023/10/18 09:58:44;;;;;;;21.98;3.53;;;;;;;;;;5060092;28;20115;-52
2023/10/18 10:01:52;;;;;;;30.85;3.72;;;;;;;;;;5062405;28;20063;-53
2023/10/18 10:04:03;;;;;;;26.02;3.80;;;;;;;;;;5060611;28;20072;-54
2023/10/18 10:06:30;;;;;;;41.95;4.63;;;;;;;;;;5064257;28;20086;-58
2023/10/18 10:11:39;;;;;;;35.65;5.18;;;;;;;;;;5052262;28;20135;-56
2023/10/18 10:14:07;;;;;;;18.88;4.78;;;;;;;;;;5065977;28;20049;-58
2023/10/18 10:16:36;;;;;;;31.75;4.45;;;;;;;;;;5033717;28;20440;-56
2023/10/18 10:19:05;;;;;;;40.50;5.22;;;;;;;;;;5064538;28;20064;-55
2023/10/18 10:21:33;;;;;;;31.17;4.95;;;;;;;;;;5045563;28;20516;-55
2023/10/18 10:24:07;;;;;;;30.95;4.22;;;;;;;;;;5059402;28;20533;-63
2023/10/18 10:26:42;;;;;;;50.22;5.63;;;;;;;;;;5061642;28;20418;-52
2023/10/18 10:29:24;;;;;;;26.80;4.45;;;;;;;;;;5060955;28;20037;-56
2023/10/18 10:32:06;;;;;;;32.33;5.05;;;;;;;;;;5060510;28;20460;-54
2023/10/18 10:34:42;;;;;;;27.35;4.25;;;;;;;;;;5038517;28;20494;-50
2023/10/18 10:37:16;;;;;;;40.28;5.13;;;;;;;;;;5061738;28;20060;-54
2023/10/18 10:39:44;;;;;;;50.67;6.03;;;;;;;;;;5064545;28;20093;-55
2023/10/18 10:42:19;;;;;;;81.90;7.03;;;;;;;;;;5064508;28;20560;-54
2023/10/18 10:44:55;;;;;;;49.55;5.43;;;;;;;;;;5062184;28;20049;-53
2023/10/18 10:47:29;;;;;;;39.83;4.85;;;;;;;;;;5064688;28;20119;-55
2023/10/18 10:50:00;;;;;;;20.58;3.40;;;;;;;;;;5062316;28;20040;-51
2023/10/18 10:52:31;;;;;;;27.95;4.20;;;;;;;;;;5059203;28;20047;-57
2023/10/18 10:55:16;;;;;;;28.55;4.57;;;;;;;;;;5061918;28;20049;-54
2023/10/18 10:57:45;;;;;;;42.17;4.90;;;;;;;;;;5042810;28;20045;-52
2023/10/18 11:03:06;;;;;;;37.17;4.70;;;;;;;;;;5040076;28;20497;-61
2023/10/18 11:05:37;;;;;;;;;;;;;;;;;;5039916;28;20041;-56
2023/10/18 11:08:05;;;;;;;35.50;3.88;;;;;;;;;;5060534;28;20374;-57
2023/10/18 11:10:39;;;;;;;39.78;4.30;;;;;;;;;;5040028;28;20036;-55
2023/10/18 11:13:08;;;;;;;51.13;5.43;;;;;;;;;;5059798;28;20041;-55
2023/10/18 11:15:42;;;;;;;37.55;4.35;;;;;;;;;;5041072;28;20056;-56
2023/10/18 11:18:22;;;;;;;58.72;5.50;;;;;;;;;;5060493;28;20127;-56
2023/10/18 11:21:38;;;;;;;22.23;3.33;;;;;;;;;;5061209;28;20045;-55
2023/10/18 11:23:38;;;;;;;28.08;3.60;;;;;;;;;;5036503;28;20049;-54
2023/10/18 11:26:19;;;;;;;29.95;3.80;;;;;;;;;;5065150;28;20048;-55
2023/10/18 11:28:46;;;;;;;36.42;4.10;;;;;;;;;;5055062;28;20067;-58
2023/10/18 11:31:13;;;;;;;39.22;4.63;;;;;;;;;;5062447;28;20037;-54
2023/10/18 11:36:30;;;;;;;25.52;3.78;;;;;;;;;;5060627;28;20047;-54
2023/10/18 11:41:44;;;;;;;27.70;4.15;;;;;;;;;;5060302;28;20040;-54
2023/10/18 11:44:14;;;;;;;26.80;3.25;;;;;;;;;;5058459;28;20055;-56
2023/10/18 11:46:47;;;;;;;34.38;3.90;;;;;;;;;;5061873;28;20037;-56
2023/10/18 11:49:14;;;;;;;30.20;3.75;;;;;;;;;;5041816;28;20575;-52
2023/10/18 11:51:45;;;;;;;63.17;6.72;;;;;;;;;;5061368;28;20457;-54
2023/10/18 11:54:26;;;;;;;68.00;5.78;;;;;;;;;;5043423;28;20525;-51
2023/10/18 11:56:52;;;;;;;24.48;3.38;;;;;;;;;;5061130;28;20041;-53
2023/10/18 11:59:19;;;;;;;25.92;3.63;;;;;;;;;;5065060;28;20055;-54
2023/10/18 12:01:53;;;;;;;23.83;4.05;;;;;;;;;;5054605;28;20421;-54
2023/10/18 12:04:27;;;;;;;32.35;3.95;;;;;;;;;;5063433;28;20033;-57
2023/10/18 12:06:56;;;;;;;18.95;3.17;;;;;;;;;;5062084;28;20161;-53
2023/10/18 12:11:49;;;;;;;29.75;3.83;;;;;;;;;;5061051;28;20049;-57
2023/10/18 12:14:16;;;;;;;19.75;3.22;;;;;;;;;;5059919;28;20049;-56
2023/10/18 12:16:42;;;;;;;21.00;2.85;;;;;;;;;;5061906;28;20524;-53
2023/10/18 12:19:10;;;;;;;16.88;3.03;;;;;;;;;;5065179;28;20049;-55
2023/10/18 12:21:37;;;;;;;46.95;5.18;;;;;;;;;;5061582;28;20435;-53
2023/10/18 12:24:07;;;;;;;48.55;4.93;;;;;;;;;;5064130;28;20119;-57
2023/10/18 12:26:39;;;;;;;25.45;3.63;;;;;;;;;;5045154;28;20067;-55
2023/10/18 12:29:05;;;;;;;36.17;4.47;;;;;;;;;;5037048;28;20040;-53
2023/10/18 12:31:39;;;;;;;25.50;3.28;;;;;;;;;;5067858;28;20060;-56
2023/10/18 12:34:07;;;;;;;35.22;4.20;;;;;;;;;;5063131;28;20503;-55
2023/10/18 12:36:40;;;;;;;27.88;4.25;;;;;;;;;;5029504;28;20404;-57
2023/10/18 12:39:09;;;;;;;50.55;5.70;;;;;;;;;;5047782;28;20547;-51
2023/10/18 12:41:39;;;;;;;17.58;3.67;;;;;;;;;;5064647;28;20079;-54
2023/10/18 12:44:11;;;;;;;101.95;9.38;;;;;;;;;;5067340;28;20033;-54
2023/10/18 12:46:38;;;;;;;41.20;4.55;;;;;;;;;;5057193;28;20552;-56
2023/10/18 12:49:05;;;;;;;18.35;3.22;;;;;;;;;;5045668;28;20044;-58
2023/10/18 12:51:34;;;;;;;30.40;5.50;;;;;;;;;;5054826;28;20056;-55
2023/10/18 12:54:04;;;;;;;73.20;7.65;;;;;;;;;;5061794;28;20123;-56
2023/10/18 12:58:58;;;;;;;23.92;3.67;;;;;;;;;;5059137;28;20049;-54
2023/10/18 13:01:32;;;;;;;31.00;4.20;;;;;;;;;;5063652;28;20068;-54
2023/10/18 13:03:59;;;;;;;34.10;4.53;;;;;;;;;;5051636;28;20045;-55
2023/10/18 13:06:35;;;;;;;38.75;5.32;;;;;;;;;;5064109;28;20072;-57
2023/10/18 13:14:11;;;;;;;37.25;6.20;;;;;;;;;;5063570;28;20571;-54
2023/10/18 13:16:38;;;;;;;30.50;4.18;;;;;;;;;;5066768;28;20126;-55
2023/10/18 13:19:06;;;;;;;45.00;5.47;;;;;;;;;;5063837;28;20115;-58
2023/10/18 13:21:33;;;;;;;50.47;8.23;;;;;;;;;;5061010;28;20045;-57
2023/10/18 13:24:00;;;;;;;54.92;6.60;;;;;;;;;;5065622;28;20250;-56
2023/10/18 13:26:28;;;;;;;13.90;3.20;;;;;;;;;;5061355;28;20395;-55
2023/10/18 13:29:02;;;;;;;20.60;3.85;;;;;;;;;;5057818;28;20041;-52
2023/10/18 13:31:32;;;;;;;37.70;5.43;;;;;;;;;;5060847;28;20563;-54
2023/10/18 13:33:59;;;;;;;26.50;4.10;;;;;;;;;;5062600;28;20116;-51
2023/10/18 13:36:26;;;;;;;40.47;5.32;;;;;;;;;;5062967;28;20068;-51
2023/10/18 13:38:53;;;;;;;30.00;5.07;;;;;;;;;;5065697;28;20500;-55
2023/10/18 13:41:20;;;;;;;25.75;4.25;;;;;;;;;;5062160;28;20041;-54
2023/10/18 13:43:47;;;;;;;66.07;5.90;;;;;;;;;;5051824;28;20036;-51
2023/10/18 13:46:22;;;;;;;32.92;3.90;;;;;;;;;;5063203;28;20044;-55
2023/10/18 13:48:52;;;;;;;71.72;7.50;;;;;;;;;;5033908;28;20048;-53
2023/10/18 13:51:22;;;;;;;91.43;7.30;;;;;;;;;;5062388;28;20051;-55
2023/10/18 13:53:52;;;;;;;25.13;4.32;;;;;;;;;;5053833;28;20051;-54
2023/10/18 13:56:21;;;;;;;32.03;5.00;;;;;;;;;;5066547;28;20064;-54
2023/10/18 13:58:48;;;;;;;39.60;5.72;;;;;;;;;;5056166;28;20041;-56
2023/10/18 14:01:18;;;;;;;45.90;5.75;;;;;;;;;;5044255;28;20068;-55
2023/10/18 14:03:49;;;;;;;119.28;9.27;;;;;;;;;;5062161;28;20043;-56
2023/10/18 14:06:16;;;;;;;136.98;10.55;;;;;;;;;;5061452;28;20044;-53
2023/10/18 14:08:44;;;;;;;46.22;4.43;;;;;;;;;;5060968;28;20426;-55
2023/10/18 14:11:13;;;;;;;95.18;7.57;;;;;;;;;;5051507;28;20048;-55
2023/10/18 14:13:43;;;;;;;34.60;3.83;;;;;;;;;;5042372;28;20383;-58
2023/10/18 14:16:12;;;;;;;56.10;6.28;;;;;;;;;;5063125;28;20123;-58
2023/10/18 14:18:43;;;;;;;103.70;7.45;;;;;;;;;;5056906;28;20082;-58
2023/10/18 14:21:12;;;;;;;112.53;8.77;;;;;;;;;;5049895;28;20131;-59
2023/10/18 14:23:40;;;;;;;39.80;3.92;;;;;;;;;;5063407;28;20051;-59
2023/10/18 14:26:07;;;;;;;40.42;3.55;;;;;;;;;;5059438;28;20052;-58
2023/10/18 14:28:34;;;;;;;39.65;4.20;;;;;;;;;;5063388;28;20079;-53
2023/10/18 14:31:02;;;;;;;48.13;5.15;;;;;;;;;;5039081;28;20421;-53
2023/10/18 14:33:30;;;;;;;74.07;6.18;;;;;;;;;;5051081;28;20094;-57
2023/10/18 14:36:19;;;;;;;64.53;6.47;;;;;;;;;;5042682;28;20629;-56
2023/10/18 14:38:45;;;;;;;64.45;5.53;;;;;;;;;;5056674;28;20055;-57
2023/10/18 14:41:21;;;;;;;48.53;4.63;;;;;;;;;;5060780;28;20055;-54
2023/10/18 14:43:59;;;;;;;36.70;3.88;;;;;;;;;;5065855;28;20123;-57
2023/10/18 14:46:29;;;;;;;43.70;5.60;;;;;;;;;;5056237;28;20148;-55
2023/10/18 14:48:58;;;;;;;57.38;5.57;;;;;;;;;;5059459;28;20496;-57
2023/10/18 14:51:26;;;;;;;58.22;5.60;;;;;;;;;;5060298;28;20098;-58
2023/10/18 14:53:53;;;;;;;47.38;5.15;;;;;;;;;;5059302;28;20076;-54
2023/10/18 14:56:22;;;;;;;49.22;5.70;;;;;;;;;;5061061;28;20068;-59
2023/10/18 14:58:50;;;;;;;49.65;6.10;;;;;;;;;;5038479;28;20049;-58
2023/10/18 15:01:17;;;;;;;157.57;11.82;;;;;;;;;;5042612;28;20115;-57
2023/10/18 15:03:46;;;;;;;51.83;6.20;;;;;;;;;;5059190;28;20040;-53
2023/10/18 15:06:19;;;;;;;84.93;8.85;;;;;;;;;;5057677;28;20044;-60
2023/10/18 15:08:46;;;;;;;;;;;;;;;;;;5059397;28;20128;-55
2023/10/18 15:11:14;;;;;;;65.50;8.05;;;;;;;;;;5059916;28;20003;-54
2023/10/18 15:13:48;;;;;;;78.10;7.57;;;;;;;;;;5059397;28;20045;-55
2023/10/18 15:16:16;;;;;;;41.85;7.32;;;;;;;;;;5026465;28;20079;-57
2023/10/18 15:18:46;;;;;;;70.30;9.02;;;;;;;;;;5060372;28;20064;-57
2023/10/18 15:21:15;;;;;;;92.13;10.63;;;;;;;;;;5058550;28;20059;-58
2023/10/18 15:23:43;;;;;;;74.15;10.38;;;;;;;;;;5037814;28;20417;-52
2023/10/18 15:26:11;;;;;;;51.78;8.88;;;;;;;;;;5061485;28;20478;-57
2023/10/18 15:28:39;;;;;;;51.53;9.52;;;;;;;;;;5038832;28;20040;-59
2023/10/18 15:31:08;;;;;;;53.60;11.15;;;;;;;;;;5058578;28;20037;-58
2023/10/18 15:33:36;;;;;;;81.00;10.73;;;;;;;;;;5041425;28;20057;-59
2023/10/18 15:36:14;;;;;;;66.68;9.00;;;;;;;;;;5046066;28;20053;-57
2023/10/18 15:38:43;;;;;;;62.97;8.13;;;;;;;;;;5058212;28;20148;-57
2023/10/18 15:41:10;;;;;;;51.88;8.27;;;;;;;;;;5042349;28;20057;-56
2023/10/18 15:43:38;;;;;;;77.32;12.73;;;;;;;;;;5047404;28;20409;-57
2023/10/18 15:46:04;;;;;;;115.93;17.38;;;;;;;;;;5045086;28;20064;-53
2023/10/18 15:48:32;;;;;;;79.35;14.90;;;;;;;;;;5060924;28;20059;-56
2023/10/18 15:50:59;;;;;;;61.88;12.80;;;;;;;;;;5057667;28;20072;-55
2023/10/18 15:53:28;;;;;;;72.75;13.07;;;;;;;;;;5044796;28;20148;-53
2023/10/18 15:55:59;;;;;;;91.13;17.10;;;;;;;;;;5063514;28;20048;-57
2023/10/18 15:58:29;;;;;;;77.55;16.45;;;;;;;;;;5065342;28;20044;-55
2023/10/18 16:00:59;;;;;;;75.93;19.80;;;;;;;;;;5064683;28;20059;-52
2023/10/18 16:03:28;;;;;;;103.28;23.00;;;;;;;;;;5062856;28;20090;-58
2023/10/18 16:05:55;;;;;;;108.25;22.83;;;;;;;;;;5045764;28;20144;-55
2023/10/18 16:08:21;;;;;;;84.88;21.38;;;;;;;;;;5053818;28;20086;-56
2023/10/18 16:10:48;;;;;;;73.55;18.13;;;;;;;;;;5060866;28;20037;-57
2023/10/18 16:13:19;;;;;;;87.18;22.30;;;;;;;;;;5064173;28;20041;-58
2023/10/18 16:15:46;;;;;;;97.78;21.27;;;;;;;;;;5062681;28;20068;-58
2023/10/18 16:18:13;;;;;;;132.57;21.85;;;;;;;;;;5061776;28;20056;-58
2023/10/18 16:20:40;;;;;;;115.13;20.60;;;;;;;;;;5065580;28;20496;-56
2023/10/18 16:23:07;;;;;;;92.68;20.63;;;;;;;;;;5063739;28;20563;-56
2023/10/18 16:25:40;;;;;;;97.45;20.52;;;;;;;;;;5065388;28;20052;-56
2023/10/18 16:28:09;;;;;;;89.82;19.92;;;;;;;;;;5062928;28;20559;-55
2023/10/18 16:30:36;;;;;;;123.00;26.40;;;;;;;;;;5044171;28;20620;-57
2023/10/18 16:33:03;;;;;;;91.15;24.75;;;;;;;;;;5044837;28;20057;-52
2023/10/18 16:35:31;;;;;;;77.13;23.80;;;;;;;;;;5061083;28;20098;-53
2023/10/18 16:37:58;;;;;;;94.13;25.55;;;;;;;;;;5062034;28;20048;-57
2023/10/18 16:40:24;;;;;;;86.05;24.25;;;;;;;;;;5060626;28;20082;-53
2023/10/18 16:42:51;;;;;;;133.27;25.27;;;;;;;;;;5062242;28;20084;-54
2023/10/18 16:45:19;;;;;;;119.22;22.80;;;;;;;;;;5061811;28;20040;-53
2023/10/18 16:47:46;;;;;;;98.60;23.88;;;;;;;;;;5062653;28;20079;-56
2023/10/18 16:50:14;;;;;;;94.05;23.60;;;;;;;;;;5062752;28;20045;-53
2023/10/18 16:52:40;;;;;;;112.10;27.02;;;;;;;;;;5065801;28;20040;-52
2023/10/18 16:55:08;;;;;;;142.05;29.50;;;;;;;;;;5051277;28;20478;-56
2023/10/18 16:57:37;;;;;;;98.25;23.90;;;;;;;;;;5055359;28;20040;-54
2023/10/18 17:00:18;;;;;;;110.40;24.23;;;;;;;;;;5043764;28;20136;-54
2023/10/18 17:02:45;;;;;;;99.00;23.05;;;;;;;;;;5061482;28;20049;-57
2023/10/18 17:05:13;;;;;;;133.52;23.73;;;;;;;;;;5066956;28;20044;-54
2023/10/18 17:07:43;;;;;;;98.88;22.55;;;;;;;;;;5060484;28;20048;-57
2023/10/18 17:10:11;;;;;;;101.32;23.98;;;;;;;;;;5046841;28;20098;-53
2023/10/18 17:12:38;;;;;;;100.47;24.95;;;;;;;;;;5062841;28;20470;-57
2023/10/18 17:15:06;;;;;;;77.65;24.20;;;;;;;;;;5053634;28;20508;-54
2023/10/18 17:17:32;;;;;;;97.95;22.23;;;;;;;;;;5051383;28;20049;-50
2023/10/18 17:20:00;;;;;;;72.93;20.63;;;;;;;;;;5062076;28;20045;-57